Aviation Digital Data Service (ADDS)

Output produced by METARs form (0255 UTC 25 May 2017)
found at http://www.aviationweather.gov/adds/metars/
 
OEAB 250200Z 00000KT CAVOK 20/02 Q1024 NOSIG
TAF OEAB 242300Z 2500/2606 06008KT 9999 SCT020 SCT080 
     TEMPO 2508/2518 6000 TS FEW025CB
       
OEAH 250200Z 33005KT 8000 SKC 29/00 Q1009 NOSIG
TAF OEAH 242300Z 2500/2606 VRB03KT 7000 NSC 
     BECMG 2506/2508 36006G16KT 
     TEMPO 2506/2518 3000 DU BLDU
       
OEBA 250200Z 32011KT CAVOK 24/08 Q1020 NOSIG
TAF OEBA 241100Z 2412/2518 26015KT 9999 SCT030 
     TEMPO 2412/2418 6000 TSRA FEW025CB 
     BECMG 2418/2420 VRB03KT
       
OESK 250100Z 09004KT CAVOK 21/M02 Q1015 NOSIG
TAF OESK 242300Z 2500/2606 VRB03KT 7000 FEW040 SCT100 
     BECMG 2506/2508 12012KT 
     TEMPO 2506/2516 4000 DU
       
OERR 250200Z 02006KT CAVOK 18/05 Q1014 NOSIG
TAF OERR 242300Z 2500/2606 VRB03KT 7000 FEW040 SCT100 
     BECMG 2506/2508 09012KT 
     TEMPO 2406/2416 4000 DU
       
OEBH 250200Z 00000KT CACOK 28/11 Q1015 NOSIG
TAF OEBH 242300Z 2500/2606 VRB03KT 7000 FEW030 SCT100 
     BECMG 2506/2508 09012KT 
     TEMPO 2508/2518 4000 DU SCT030 FEW025CB
       
OEGS 250200Z 05011KT CAVOK 28/07 Q1014
TAF OEGS 242300Z 2500/2606 03006G16KT 7000 SCT040 SCT100 
     TEMPO 2500/2512 3000 DU BLDU
       
OEGT 250200Z 29008KT CAVOK 15/08 Q1016 NOSIG
TAF OEGT 242300Z 2500/2606 30012KT CAVOK 
     BECMG 2506/2508 08008KT
       
OEHL 250200Z 03002KT CAVOK 22/02 Q1018
TAF OEHL 242300Z 2500/2606 03006G16KT 7000 SCT040 SCT100 
     BECMG 2506/2508 14012KT 
     TEMPO 2506/2516 3000 DU BLDU
       
OEGN 250200Z 00000KT CAVOK 32/25 Q1006 NOSIG
TAF OEGN 242300Z 2500/2606 VRB03KT 7000 FEW030 SCT100 
     TEMPO 2508/2518 3500 BLDU/TS SCT030 FEW035CB
       
OEDR 250200Z 35011KT 4000 BLDU SKC 31/14 Q1006 NOSIG
TAF OEDR 242100Z 2500/2606 33012KT 7000 NSC 
     BECMG 2504/2506 35015G27KT 
     TEMPO 2504/2509 3000 BLDU
       
OEJN 250200Z 34008KT 9999 FEW040 28/20 Q1006 NOSIG
TAF COR OEJN 242300Z 2500/2606 35012G22KT 7000 FEW040 SCT100 
     TEMPO 2505/2518 3500 BLDU
       
OEDF 250200Z 35008KT 6000 SKC 29/14 Q1008 NOSIG
TAF OEDF 242100Z 2500/2606 33012KT 7000 NSC 
     BECMG 2504/2506 35015G27KT 
     TEMPO 2504/2509 3000 BLDU
       
OEKM 250200Z 12006KT CAVOK 21/05 Q1023 NOSIG
TAF OEKM 242300Z 2500/2606 06008KT 9999 SCT020 SCT080 
     TEMPO 2508/2518 6000 TS FEW025CB
       
OERK 250200Z 34002KT 4000 DU NSC 29/M03 Q1014 NOSIG
TAF COR OERK 242300Z 2500/2606 06006G16KT 7000 FEW040 
     TEMPO 2500/2512 3500 DU BLDU SCT040 
     BECMG 2510/2512 35014KT
       
OENG 250200Z 00000KT CAVOK 26/08 Q1015 NOSIG
TAF OENG 242300Z 2500/2606 26008KT 7000 SCT030 SCT100 
     BECMG 2506/2508 09015KT 
     TEMPO 2506/2518 3500 DU/BLDU
       
OEMA 250200Z 00000KT CAVOK 31/M10 Q1014 NOSIG
TAF OEMA 242300Z 2500/2606 06012KT 7000 SCT045 BKN100
       
OEPA 250200Z 01008KT CAVOK 25/10 Q1013 NOSIG
TAF OEPA 242300Z 2500/2606 04010G20KT 7000 FEW030 SCT100 
     TEMPO 2500/2515 3000 DU 
     PROB30 
     TEMPO 2506/2512 1000 BLSA
       
OERF 250200Z 07010KT CAVOK 24/01 Q1014
TAF OERF 242300Z 2500/2606 VRB03KT 7000 FEW040 SCT100 
     BECMG 2506/2508 08012KT 
     TEMPO 2506/2516 3000 DU BLDU
       
TAF OERY 242300Z 2500/2606 VRB03KT 7000 FEW040 
     BECMG 2506/2508 04012KT 
     TEMPO 2506/2516 3000 DU
       
OESH 250200Z 06004KT CAVOK 28/04 Q1011 NOSIG
TAF OESH 242300Z 2500/2606 VRB03KT 7000 FEW030 SCT100 
     BECMG 2506/2508 14012KT 
     TEMPO 2505/2518 3500 DU/BLDU
       
OETB 250200Z 33007KT CAVOK 20/M01 Q1015 NOSIG
TAF OETB 242300Z 2500/2606 VRB03KT CAVOK 
     BECMG 2506/2508 12012KT
       
OETF 250200Z 00000KT CAVOK 24/07 Q1019 NOSIG
TAF OETF 242300Z 2500/2606 VRB03KT 7000 SCT030 
     BECMG 2510/2512 24012KT 
     TEMPO 2510/2518 FEW025CB
       
OETR 250200Z 04006KT CAVOK 15/03 Q1016 NOSIG
TAF OETR 242300Z 2500/2606 03012KT 8000 SKC 
     BECMG 2506/2508 16008KT 
     TEMPO 2506/2516 3000 DU BLDU
       
OEWD 250200Z 11006KT CAVOK 29/17 Q1010 NOSIG
TAF OEWD 242300Z 2500/2606 VRB03KT 7000 FEW040 SCT100 
     BECMG 2508/2510 12015KT 
     TEMPO 2508/2518 3000 DU/BLDU
       
OEWJ 250200Z 00000KT CAVOK 21/17 Q1010 NOSIG
TAF OEWJ 242300Z 2500/2606 VRB03KT 8000 SKC 
     BECMG 2506/2508 28008G18KT 
     TEMPO 2510/2516 4000 DU/BLDU
       
OEYN 250200Z 27010KT 9999 FEW040 28/16 Q1006 NOSIG
TAF OEYN 242300Z 2500/2606 VRB03KT 7000 SCT040 SCT100 
     BECMG 2506/2508 28008G18KT 
     TEMPO 2510/2517 3000 DU/BLDU